sensor_id;sensor_type;location;lat;lon;timestamp;pressure;altitude;pressure_sealevel;temperature;humidity
10852;BME280;5479;52.046;6.314;2023-02-14T00:00:07;103434.13;;;3.30;100.00
10852;BME280;5479;52.046;6.314;2023-02-14T00:02:35;103435.66;;;3.16;100.00
10852;BME280;5479;52.046;6.314;2023-02-14T00:05:05;103436.31;;;3.00;100.00
10852;BME280;5479;52.046;6.314;2023-02-14T00:07:33;103435.31;;;2.89;100.00
10852;BME280;5479;52.046;6.314;2023-02-14T00:10:01;103436.06;;;2.80;100.00
10852;BME280;5479;52.046;6.314;2023-02-14T00:12:29;103436.84;;;2.75;100.00
10852;BME280;5479;52.046;6.314;2023-02-14T00:14:57;103438.53;;;2.71;100.00
10852;BME280;5479;52.046;6.314;2023-02-14T00:17:42;103438.53;;;2.70;100.00
10852;BME280;5479;52.046;6.314;2023-02-14T00:20:12;103438.53;;;2.70;100.00
10852;BME280;5479;52.046;6.314;2023-02-14T00:22:40;103436.91;;;2.78;100.00
10852;BME280;5479;52.046;6.314;2023-02-14T00:25:08;103439.56;;;2.81;100.00
10852;BME280;5479;52.046;6.314;2023-02-14T00:27:36;103437.00;;;2.87;100.00
10852;BME280;5479;52.046;6.314;2023-02-14T00:30:05;103437.94;;;2.92;100.00
10852;BME280;5479;52.046;6.314;2023-02-14T00:32:36;103432.59;;;2.83;100.00
10852;BME280;5479;52.046;6.314;2023-02-14T00:35:04;103430.72;;;2.76;100.00
10852;BME280;5479;52.046;6.314;2023-02-14T00:37:34;103427.19;;;2.71;100.00
10852;BME280;5479;52.046;6.314;2023-02-14T00:40:05;103425.41;;;2.68;100.00
10852;BME280;5479;52.046;6.314;2023-02-14T00:42:33;103432.31;;;2.63;100.00
10852;BME280;5479;52.046;6.314;2023-02-14T00:45:01;103429.59;;;2.57;100.00
10852;BME280;5479;52.046;6.314;2023-02-14T00:47:29;103421.78;;;2.59;100.00
10852;BME280;5479;52.046;6.314;2023-02-14T00:49:57;103420.28;;;2.76;100.00
10852;BME280;5479;52.046;6.314;2023-02-14T00:52:28;103423.13;;;2.91;100.00
10852;BME280;5479;52.046;6.314;2023-02-14T00:54:57;103425.69;;;2.88;100.00
10852;BME280;5479;52.046;6.314;2023-02-14T00:57:25;103424.59;;;2.74;100.00
10852;BME280;5479;52.046;6.314;2023-02-14T00:59:53;103424.44;;;2.62;100.00
10852;BME280;5479;52.046;6.314;2023-02-14T01:02:22;103422.56;;;2.55;100.00
10852;BME280;5479;52.046;6.314;2023-02-14T01:04:49;103418.06;;;2.44;100.00
10852;BME280;5479;52.046;6.314;2023-02-14T01:07:17;103424.06;;;2.37;100.00
10852;BME280;5479;52.046;6.314;2023-02-14T01:09:47;103424.00;;;2.34;100.00
10852;BME280;5479;52.046;6.314;2023-02-14T01:12:16;103433.41;;;2.22;100.00
10852;BME280;5479;52.046;6.314;2023-02-14T01:14:44;103429.78;;;2.14;100.00
10852;BME280;5479;52.046;6.314;2023-02-14T01:17:12;103432.19;;;2.03;100.00
10852;BME280;5479;52.046;6.314;2023-02-14T01:19:40;103432.91;;;1.96;100.00
10852;BME280;5479;52.046;6.314;2023-02-14T01:22:08;103433.75;;;1.92;100.00
10852;BME280;5479;52.046;6.314;2023-02-14T01:24:36;103432.81;;;1.90;100.00
10852;BME280;5479;52.046;6.314;2023-02-14T01:27:04;103432.78;;;1.89;100.00
10852;BME280;5479;52.046;6.314;2023-02-14T01:29:34;103437.19;;;1.91;100.00
10852;BME280;5479;52.046;6.314;2023-02-14T01:32:02;103427.50;;;1.84;100.00
10852;BME280;5479;52.046;6.314;2023-02-14T01:34:30;103431.69;;;1.76;100.00
10852;BME280;5479;52.046;6.314;2023-02-14T01:36:58;103430.63;;;1.66;100.00
10852;BME280;5479;52.046;6.314;2023-02-14T01:39:26;103434.88;;;1.60;100.00
10852;BME280;5479;52.046;6.314;2023-02-14T01:41:53;103437.47;;;1.60;100.00
10852;BME280;5479;52.046;6.314;2023-02-14T01:44:56;103434.75;;;1.54;100.00
10852;BME280;5479;52.046;6.314;2023-02-14T01:47:25;103434.59;;;1.48;100.00
10852;BME280;5479;52.046;6.314;2023-02-14T01:49:57;103424.09;;;1.45;100.00
10852;BME280;5479;52.046;6.314;2023-02-14T01:52:29;103425.75;;;1.40;100.00
10852;BME280;5479;52.046;6.314;2023-02-14T01:55:00;103439.66;;;1.39;100.00
10852;BME280;5479;52.046;6.314;2023-02-14T01:57:32;103430.13;;;1.41;100.00
10852;BME280;5479;52.046;6.314;2023-02-14T02:00:05;103432.66;;;1.38;100.00
10852;BME280;5479;52.046;6.314;2023-02-14T02:02:52;103437.81;;;1.35;100.00
10852;BME280;5479;52.046;6.314;2023-02-14T02:05:21;103432.53;;;1.32;100.00
10852;BME280;5479;52.046;6.314;2023-02-14T02:07:50;103422.03;;;1.29;100.00
10852;BME280;5479;52.046;6.314;2023-02-14T02:10:19;103425.44;;;1.25;100.00
10852;BME280;5479;52.046;6.314;2023-02-14T02:12:50;103423.59;;;1.20;100.00
10852;BME280;5479;52.046;6.314;2023-02-14T02:15:22;103430.53;;;1.18;100.00
10852;BME280;5479;52.046;6.314;2023-02-14T02:17:57;103428.72;;;1.14;100.00
10852;BME280;5479;52.046;6.314;2023-02-14T02:29:56;103413.41;;;1.33;100.00
10852;BME280;5479;52.046;6.314;2023-02-14T02:35:44;103417.59;;;1.25;100.00
10852;BME280;5479;52.046;6.314;2023-02-14T02:38:33;103410.38;;;1.13;100.00
10852;BME280;5479;52.046;6.314;2023-02-14T02:41:14;103401.56;;;1.06;100.00
10852;BME280;5479;52.046;6.314;2023-02-14T02:43:52;103401.41;;;0.99;100.00
10852;BME280;5479;52.046;6.314;2023-02-14T02:46:25;103400.53;;;0.98;100.00
10852;BME280;5479;52.046;6.314;2023-02-14T02:49:25;103399.19;;;1.18;100.00
10852;BME280;5479;52.046;6.314;2023-02-14T02:52:20;103406.34;;;1.27;100.00
10852;BME280;5479;52.046;6.314;2023-02-14T02:55:13;103401.19;;;1.32;100.00
10852;BME280;5479;52.046;6.314;2023-02-14T02:57:42;103406.50;;;1.35;100.00
10852;BME280;5479;52.046;6.314;2023-02-14T03:00:12;103396.03;;;1.35;100.00
10852;BME280;5479;52.046;6.314;2023-02-14T03:02:45;103393.28;;;1.27;100.00
10852;BME280;5479;52.046;6.314;2023-02-14T03:05:33;103393.16;;;1.21;100.00
10852;BME280;5479;52.046;6.314;2023-02-14T03:08:03;103393.84;;;1.12;100.00
10852;BME280;5479;52.046;6.314;2023-02-14T03:10:34;103392.03;;;1.08;100.00
10852;BME280;5479;52.046;6.314;2023-02-14T03:16:28;103394.25;;;0.90;100.00
10852;BME280;5479;52.046;6.314;2023-02-14T03:19:20;103392.34;;;0.83;100.00
10852;BME280;5479;52.046;6.314;2023-02-14T03:21:56;103398.44;;;0.82;100.00
10852;BME280;5479;52.046;6.314;2023-02-14T03:24:28;103398.44;;;0.82;100.00
10852;BME280;5479;52.046;6.314;2023-02-14T03:27:05;103398.38;;;0.79;100.00
10852;BME280;5479;52.046;6.314;2023-02-14T03:29:44;103398.28;;;0.75;100.00
10852;BME280;5479;52.046;6.314;2023-02-14T03:32:20;103393.78;;;0.69;100.00
10852;BME280;5479;52.046;6.314;2023-02-14T03:34:54;103401.63;;;0.69;100.00
10852;BME280;5479;52.046;6.314;2023-02-14T03:37:27;103391.94;;;0.65;100.00
10852;BME280;5479;52.046;6.314;2023-02-14T03:40:05;103392.75;;;0.63;100.00
10852;BME280;5479;52.046;6.314;2023-02-14T03:42:39;103387.44;;;0.58;100.00
10852;BME280;5479;52.046;6.314;2023-02-14T03:45:12;103390.91;;;0.57;100.00
10852;BME280;5479;52.046;6.314;2023-02-14T03:47:43;103388.34;;;0.58;100.00
10852;BME280;5479;52.046;6.314;2023-02-14T03:50:15;103386.53;;;0.56;100.00
10852;BME280;5479;52.046;6.314;2023-02-14T03:52:45;103385.53;;;0.51;100.00
10852;BME280;5479;52.046;6.314;2023-02-14T03:55:19;103394.28;;;0.53;100.00
10852;BME280;5479;52.046;6.314;2023-02-14T03:57:53;103388.13;;;0.51;100.00
10852;BME280;5479;52.046;6.314;2023-02-14T04:00:24;103393.41;;;0.52;100.00
10852;BME280;5479;52.046;6.314;2023-02-14T04:02:55;103392.50;;;0.50;100.00
10852;BME280;5479;52.046;6.314;2023-02-14T04:05:26;103395.09;;;0.50;100.00
10852;BME280;5479;52.046;6.314;2023-02-14T04:07:56;103395.19;;;0.53;100.00
10852;BME280;5479;52.046;6.314;2023-02-14T04:10:26;103395.09;;;0.50;100.00
10852;BME280;5479;52.046;6.314;2023-02-14T04:12:54;103400.41;;;0.55;100.00
10852;BME280;5479;52.046;6.314;2023-02-14T04:15:22;103383.78;;;0.50;100.00
10852;BME280;5479;52.046;6.314;2023-02-14T04:17:49;103388.94;;;0.48;100.00
10852;BME280;5479;52.046;6.314;2023-02-14T04:20:35;103386.31;;;0.47;100.00
10852;BME280;5479;52.046;6.314;2023-02-14T04:23:03;103387.97;;;0.43;100.00
10852;BME280;5479;52.046;6.314;2023-02-14T04:25:33;103395.72;;;0.40;100.00
10852;BME280;5479;52.046;6.314;2023-02-14T04:28:01;103395.69;;;0.39;100.00
10852;BME280;5479;52.046;6.314;2023-02-14T04:30:28;103387.78;;;0.34;100.00
10852;BME280;5479;52.046;6.314;2023-02-14T04:32:56;103397.38;;;0.37;100.00
10852;BME280;5479;52.046;6.314;2023-02-14T04:35:24;103399.13;;;0.38;100.00
10852;BME280;5479;52.046;6.314;2023-02-14T04:37:52;103391.28;;;0.36;100.00
10852;BME280;5479;52.046;6.314;2023-02-14T04:40:20;103386.97;;;0.37;100.00
10852;BME280;5479;52.046;6.314;2023-02-14T04:42:50;103386.00;;;0.33;100.00
10852;BME280;5479;52.046;6.314;2023-02-14T04:45:18;103388.59;;;0.32;100.00
10852;BME280;5479;52.046;6.314;2023-02-14T04:47:46;103388.50;;;0.29;100.00
10852;BME280;5479;52.046;6.314;2023-02-14T04:50:14;103380.63;;;0.27;100.00
10852;BME280;5479;52.046;6.314;2023-02-14T04:52:42;103385.03;;;0.30;100.00
10852;BME280;5479;52.046;6.314;2023-02-14T04:55:10;103380.59;;;0.26;100.00
10852;BME280;5479;52.046;6.314;2023-02-14T04:57:38;103381.38;;;0.22;100.00
10852;BME280;5479;52.046;6.314;2023-02-14T05:00:08;103376.16;;;0.22;100.00
10852;BME280;5479;52.046;6.314;2023-02-14T05:02:36;103377.03;;;0.22;100.00
10852;BME280;5479;52.046;6.314;2023-02-14T05:05:05;103381.38;;;0.22;100.00
10852;BME280;5479;52.046;6.314;2023-02-14T05:07:33;103374.47;;;0.24;100.00
10852;BME280;5479;52.046;6.314;2023-02-14T05:10:01;103372.72;;;0.23;100.00
10852;BME280;5479;52.046;6.314;2023-02-14T05:12:29;103367.50;;;0.23;100.00
10852;BME280;5479;52.046;6.314;2023-02-14T05:14:57;103367.56;;;0.26;100.00
10852;BME280;5479;52.046;6.314;2023-02-14T05:17:26;103368.47;;;0.26;100.00
10852;BME280;5479;52.046;6.314;2023-02-14T05:19:54;103362.38;;;0.26;100.00
10852;BME280;5479;52.046;6.314;2023-02-14T05:22:22;103356.31;;;0.27;100.00
10852;BME280;5479;52.046;6.314;2023-02-14T05:24:50;103361.56;;;0.28;100.00
10852;BME280;5479;52.046;6.314;2023-02-14T05:27:18;103358.97;;;0.30;100.00
10852;BME280;5479;52.046;6.314;2023-02-14T05:29:45;103357.41;;;0.38;100.00
10852;BME280;5479;52.046;6.314;2023-02-14T05:32:13;103356.97;;;0.55;100.00
10852;BME280;5479;52.046;6.314;2023-02-14T05:34:43;103353.38;;;0.50;100.00
10852;BME280;5479;52.046;6.314;2023-02-14T05:37:10;103353.16;;;0.41;100.00
10852;BME280;5479;52.046;6.314;2023-02-14T05:39:38;103351.19;;;0.31;100.00
10852;BME280;5479;52.046;6.314;2023-02-14T05:42:06;103349.34;;;0.26;100.00
10852;BME280;5479;52.046;6.314;2023-02-14T05:44:34;103346.56;;;0.20;100.00
10852;BME280;5479;52.046;6.314;2023-02-14T05:47:02;103351.84;;;0.23;100.00
10852;BME280;5479;52.046;6.314;2023-02-14T05:49:30;103354.31;;;0.17;100.00
10852;BME280;5479;52.046;6.314;2023-02-14T05:51:59;103353.44;;;0.16;100.00
10852;BME280;5479;52.046;6.314;2023-02-14T05:54:27;103358.53;;;0.12;100.00
10852;BME280;5479;52.046;6.314;2023-02-14T05:56:55;103362.75;;;0.07;100.00
10852;BME280;5479;52.046;6.314;2023-02-14T05:59:23;103356.72;;;0.08;100.00
10852;BME280;5479;52.046;6.314;2023-02-14T06:01:51;103358.34;;;0.03;100.00
10852;BME280;5479;52.046;6.314;2023-02-14T06:04:18;103365.59;;;0.16;100.00
10852;BME280;5479;52.046;6.314;2023-02-14T06:06:46;103360.31;;;0.13;100.00
10852;BME280;5479;52.046;6.314;2023-02-14T06:09:16;103369.59;;;0.03;100.00
10852;BME280;5479;52.046;6.314;2023-02-14T06:11:45;103363.47;;;-0.01;100.00
10852;BME280;5479;52.046;6.314;2023-02-14T06:14:13;103356.38;;;-0.06;100.00
10852;BME280;5479;52.046;6.314;2023-02-14T06:16:41;103365.00;;;-0.09;100.00
10852;BME280;5479;52.046;6.314;2023-02-14T06:19:08;103364.13;;;-0.09;100.00
10852;BME280;5479;52.046;6.314;2023-02-14T06:21:36;103363.38;;;-0.04;100.00
10852;BME280;5479;52.046;6.314;2023-02-14T06:24:04;103361.66;;;-0.03;100.00
10852;BME280;5479;52.046;6.314;2023-02-14T06:26:34;103356.47;;;-0.02;100.00
10852;BME280;5479;52.046;6.314;2023-02-14T06:29:02;103356.47;;;-0.02;100.00
10852;BME280;5479;52.046;6.314;2023-02-14T06:31:31;103361.44;;;-0.11;100.00
10852;BME280;5479;52.046;6.314;2023-02-14T06:33:59;103355.09;;;0.13;100.00
10852;BME280;5479;52.046;6.314;2023-02-14T06:36:27;103363.75;;;0.12;100.00
10852;BME280;5479;52.046;6.314;2023-02-14T06:38:55;103369.75;;;0.08;100.00
10852;BME280;5479;52.046;6.314;2023-02-14T06:41:23;103366.34;;;0.10;100.00
10852;BME280;5479;52.046;6.314;2023-02-14T06:43:53;103362.94;;;0.14;100.00
10852;BME280;5479;52.046;6.314;2023-02-14T06:46:21;103374.97;;;0.09;100.00
10852;BME280;5479;52.046;6.314;2023-02-14T06:48:49;103375.63;;;0.00;100.00
10852;BME280;5479;52.046;6.314;2023-02-14T06:51:16;103374.69;;;-0.03;100.00
10852;BME280;5479;52.046;6.314;2023-02-14T06:53:44;103383.16;;;-0.10;100.00
10852;BME280;5479;52.046;6.314;2023-02-14T06:56:12;103382.19;;;-0.15;100.00
10852;BME280;5479;52.046;6.314;2023-02-14T06:58:42;103378.84;;;-0.10;100.00
10852;BME280;5479;52.046;6.314;2023-02-14T07:01:11;103383.22;;;-0.09;100.00
10852;BME280;5479;52.046;6.314;2023-02-14T07:03:39;103381.53;;;-0.07;100.00
10852;BME280;5479;52.046;6.314;2023-02-14T07:06:07;103383.31;;;-0.06;100.00
10852;BME280;5479;52.046;6.314;2023-02-14T07:08:35;103390.31;;;-0.03;100.00
10852;BME280;5479;52.046;6.314;2023-02-14T07:11:03;103391.13;;;-0.06;100.00
10852;BME280;5479;52.046;6.314;2023-02-14T07:13:31;103399.84;;;-0.04;100.00
10852;BME280;5479;52.046;6.314;2023-02-14T07:15:59;103389.50;;;-0.01;100.00
10852;BME280;5479;52.046;6.314;2023-02-14T07:18:28;103390.50;;;0.05;100.00
10852;BME280;5479;52.046;6.314;2023-02-14T07:20:56;103394.03;;;0.08;100.00
10852;BME280;5479;52.046;6.314;2023-02-14T07:23:24;103396.78;;;0.13;100.00
10852;BME280;5479;52.046;6.314;2023-02-14T07:25:52;103395.19;;;0.18;100.00
10852;BME280;5479;52.046;6.314;2023-02-14T07:28:21;103405.84;;;0.27;100.00
10852;BME280;5479;52.046;6.314;2023-02-14T07:30:49;103402.44;;;0.31;100.00
10852;BME280;5479;52.046;6.314;2023-02-14T07:33:17;103401.72;;;0.36;100.00
10852;BME280;5479;52.046;6.314;2023-02-14T07:35:46;103404.56;;;0.47;100.00
10852;BME280;5479;52.046;6.314;2023-02-14T07:38:14;103409.13;;;0.55;100.00
10852;BME280;5479;52.046;6.314;2023-02-14T07:40:42;103406.75;;;0.66;100.00
10852;BME280;5479;52.046;6.314;2023-02-14T07:43:11;103397.47;;;0.77;100.00
10852;BME280;5479;52.046;6.314;2023-02-14T07:45:38;103397.78;;;0.92;100.00
10852;BME280;5479;52.046;6.314;2023-02-14T07:48:06;103403.28;;;1.06;100.00
10852;BME280;5479;52.046;6.314;2023-02-14T07:50:34;103399.13;;;1.15;100.00
10852;BME280;5479;52.046;6.314;2023-02-14T07:53:03;103396.38;;;1.50;100.00
10852;BME280;5479;52.046;6.314;2023-02-14T07:55:33;103391.72;;;2.32;100.00
10852;BME280;5479;52.046;6.314;2023-02-14T07:58:01;103385.34;;;3.43;100.00
10852;BME280;5479;52.046;6.314;2023-02-14T08:00:29;103387.19;;;4.46;100.00
10852;BME280;5479;52.046;6.314;2023-02-14T08:02:58;103383.22;;;5.16;100.00
10852;BME280;5479;52.046;6.314;2023-02-14T08:05:25;103392.13;;;5.68;100.00
10852;BME280;5479;52.046;6.314;2023-02-14T08:07:53;103381.69;;;6.20;100.00
10852;BME280;5479;52.046;6.314;2023-02-14T08:10:23;103378.13;;;6.66;100.00
10852;BME280;5479;52.046;6.314;2023-02-14T08:12:50;103371.81;;;7.14;100.00
10852;BME280;5479;52.046;6.314;2023-02-14T08:15:30;103367.13;;;7.66;100.00
10852;BME280;5479;52.046;6.314;2023-02-14T08:18:17;103358.22;;;7.79;100.00
10852;BME280;5479;52.046;6.314;2023-02-14T08:20:46;103359.97;;;7.86;100.00
10852;BME280;5479;52.046;6.314;2023-02-14T08:23:15;103358.03;;;8.03;100.00
10852;BME280;5479;52.046;6.314;2023-02-14T08:25:44;103358.03;;;8.08;100.00
10852;BME280;5479;52.046;6.314;2023-02-14T08:28:12;103365.59;;;8.47;100.00
10852;BME280;5479;52.046;6.314;2023-02-14T08:30:41;103350.69;;;8.41;100.00
10852;BME280;5479;52.046;6.314;2023-02-14T08:33:09;103350.81;;;8.28;100.00
10852;BME280;5479;52.046;6.314;2023-02-14T08:35:38;103353.59;;;8.98;100.00
10852;BME280;5479;52.046;6.314;2023-02-14T08:38:06;103358.84;;;9.01;100.00
10852;BME280;5479;52.046;6.314;2023-02-14T08:40:34;103355.00;;;9.23;100.00
10852;BME280;5479;52.046;6.314;2023-02-14T08:43:04;103362.25;;;9.09;100.00
10852;BME280;5479;52.046;6.314;2023-02-14T08:45:33;103362.97;;;8.45;100.00
10852;BME280;5479;52.046;6.314;2023-02-14T08:48:03;103360.13;;;8.67;100.00
10852;BME280;5479;52.046;6.314;2023-02-14T08:50:32;103358.53;;;9.25;100.00
10852;BME280;5479;52.046;6.314;2023-02-14T08:53:00;103358.81;;;9.04;100.00
10852;BME280;5479;52.046;6.314;2023-02-14T08:55:27;103357.28;;;8.85;100.00
10852;BME280;5479;52.046;6.314;2023-02-14T08:57:55;103359.38;;;8.56;100.00
10852;BME280;5479;52.046;6.314;2023-02-14T09:00:25;103355.50;;;8.85;100.00
10852;BME280;5479;52.046;6.314;2023-02-14T09:02:53;103346.53;;;8.97;100.00
10852;BME280;5479;52.046;6.314;2023-02-14T09:05:21;103360.97;;;8.69;100.00
10852;BME280;5479;52.046;6.314;2023-02-14T09:07:50;103354.81;;;9.37;100.00
10852;BME280;5479;52.046;6.314;2023-02-14T09:10:18;103350.56;;;9.86;100.00
10852;BME280;5479;52.046;6.314;2023-02-14T09:12:46;103353.59;;;10.17;100.00
10852;BME280;5479;52.046;6.314;2023-02-14T09:15:14;103354.06;;;9.30;100.00
10852;BME280;5479;52.046;6.314;2023-02-14T09:17:43;103354.06;;;9.30;100.00
10852;BME280;5479;52.046;6.314;2023-02-14T09:20:13;103351.63;;;9.75;100.00
10852;BME280;5479;52.046;6.314;2023-02-14T09:22:41;103346.63;;;10.13;100.00
10852;BME280;5479;52.046;6.314;2023-02-14T09:25:10;103347.53;;;9.52;100.00
10852;BME280;5479;52.046;6.314;2023-02-14T09:27:38;103345.94;;;9.42;100.00
10852;BME280;5479;52.046;6.314;2023-02-14T09:30:08;103342.00;;;9.70;100.00
10852;BME280;5479;52.046;6.314;2023-02-14T09:32:37;103348.94;;;10.33;100.00
10852;BME280;5479;52.046;6.314;2023-02-14T09:35:07;103333.69;;;10.45;100.00
10852;BME280;5479;52.046;6.314;2023-02-14T09:37:36;103330.34;;;10.34;100.00
10852;BME280;5479;52.046;6.314;2023-02-14T09:40:05;103332.56;;;10.57;100.00
10852;BME280;5479;52.046;6.314;2023-02-14T09:42:40;103325.25;;;10.22;100.00
10852;BME280;5479;52.046;6.314;2023-02-14T09:45:13;103329.94;;;10.55;100.00
10852;BME280;5479;52.046;6.314;2023-02-14T09:47:46;103325.13;;;11.17;100.00
10852;BME280;5479;52.046;6.314;2023-02-14T09:50:21;103325.78;;;10.42;100.00
10852;BME280;5479;52.046;6.314;2023-02-14T09:52:54;103323.66;;;11.04;100.00
10852;BME280;5479;52.046;6.314;2023-02-14T09:55:25;103320.47;;;10.86;100.00
10852;BME280;5479;52.046;6.314;2023-02-14T09:58:04;103328.03;;;11.06;100.00
10852;BME280;5479;52.046;6.314;2023-02-14T10:00:36;103319.94;;;11.50;100.00
10852;BME280;5479;52.046;6.314;2023-02-14T10:03:28;103315.72;;;11.80;100.00
10852;BME280;5479;52.046;6.314;2023-02-14T10:06:08;103312.22;;;11.40;100.00
10852;BME280;5479;52.046;6.314;2023-02-14T10:08:48;103322.44;;;12.61;100.00
10852;BME280;5479;52.046;6.314;2023-02-14T10:11:22;103320.44;;;12.69;100.00
10852;BME280;5479;52.046;6.314;2023-02-14T10:13:54;103318.63;;;13.00;96.72
10852;BME280;5479;52.046;6.314;2023-02-14T10:16:25;103310.47;;;13.36;97.08
10852;BME280;5479;52.046;6.314;2023-02-14T10:18:57;103316.00;;;12.68;98.17
10852;BME280;5479;52.046;6.314;2023-02-14T10:21:33;103322.56;;;12.87;98.38
10852;BME280;5479;52.046;6.314;2023-02-14T10:24:10;103307.19;;;13.83;90.01
10852;BME280;5479;52.046;6.314;2023-02-14T10:26:41;103303.84;;;14.27;84.44
10852;BME280;5479;52.046;6.314;2023-02-14T10:29:14;103293.84;;;15.51;75.33
10852;BME280;5479;52.046;6.314;2023-02-14T10:31:45;103303.09;;;16.06;67.37
10852;BME280;5479;52.046;6.314;2023-02-14T10:34:24;103296.66;;;16.71;67.59
10852;BME280;5479;52.046;6.314;2023-02-14T10:37:14;103298.94;;;17.36;61.81
10852;BME280;5479;52.046;6.314;2023-02-14T10:40:22;103299.94;;;15.97;62.33
10852;BME280;5479;52.046;6.314;2023-02-14T10:42:58;103301.03;;;17.11;62.38
10852;BME280;5479;52.046;6.314;2023-02-14T10:45:33;103293.25;;;18.14;58.73
10852;BME280;5479;52.046;6.314;2023-02-14T10:48:12;103291.34;;;18.83;56.28
10852;BME280;5479;52.046;6.314;2023-02-14T10:50:49;103298.09;;;18.90;53.29
10852;BME280;5479;52.046;6.314;2023-02-14T10:53:25;103286.19;;;18.11;53.75
10852;BME280;5479;52.046;6.314;2023-02-14T10:56:02;103287.56;;;17.68;55.20
10852;BME280;5479;52.046;6.314;2023-02-14T10:58:35;103295.22;;;16.64;57.98
10852;BME280;5479;52.046;6.314;2023-02-14T11:01:08;103299.06;;;17.52;57.53
10852;BME280;5479;52.046;6.314;2023-02-14T11:03:39;103289.94;;;17.91;56.32
10852;BME280;5479;52.046;6.314;2023-02-14T11:06:08;103295.22;;;18.10;54.83
10852;BME280;5479;52.046;6.314;2023-02-14T11:08:39;103280.28;;;19.36;50.02
10852;BME280;5479;52.046;6.314;2023-02-14T11:11:15;103275.81;;;20.11;47.45
10852;BME280;5479;52.046;6.314;2023-02-14T11:13:44;103273.13;;;20.69;46.38
10852;BME280;5479;52.046;6.314;2023-02-14T11:16:18;103273.28;;;21.23;44.51
10852;BME280;5479;52.046;6.314;2023-02-14T11:19:08;103266.09;;;21.36;43.04
10852;BME280;5479;52.046;6.314;2023-02-14T11:21:37;103261.38;;;20.84;43.56
10852;BME280;5479;52.046;6.314;2023-02-14T11:24:17;103252.00;;;20.19;45.97
10852;BME280;5479;52.046;6.314;2023-02-14T11:26:47;103249.75;;;20.84;43.11
10852;BME280;5479;52.046;6.314;2023-02-14T11:29:27;103249.38;;;21.97;42.25
10852;BME280;5479;52.046;6.314;2023-02-14T11:31:56;103246.91;;;21.40;41.81
10852;BME280;5479;52.046;6.314;2023-02-14T11:34:35;103249.44;;;21.83;41.11
10852;BME280;5479;52.046;6.314;2023-02-14T11:37:17;103245.00;;;21.42;42.41
10852;BME280;5479;52.046;6.314;2023-02-14T11:39:54;103238.19;;;22.28;40.70
10852;BME280;5479;52.046;6.314;2023-02-14T11:42:35;103231.59;;;22.07;41.38
10852;BME280;5479;52.046;6.314;2023-02-14T11:45:04;103233.56;;;23.04;39.96
10852;BME280;5479;52.046;6.314;2023-02-14T11:47:34;103222.75;;;21.65;40.30
10852;BME280;5479;52.046;6.314;2023-02-14T11:50:20;103229.75;;;18.64;46.80
10852;BME280;5479;52.046;6.314;2023-02-14T11:52:50;103230.44;;;19.46;46.71
10852;BME280;5479;52.046;6.314;2023-02-14T11:55:27;103224.31;;;20.17;44.23
10852;BME280;5479;52.046;6.314;2023-02-14T11:57:58;103221.00;;;19.07;46.85
10852;BME280;5479;52.046;6.314;2023-02-14T12:00:27;103221.72;;;19.72;45.87
10852;BME280;5479;52.046;6.314;2023-02-14T12:02:58;103214.88;;;18.90;48.11
10852;BME280;5479;52.046;6.314;2023-02-14T12:05:28;103221.00;;;19.07;46.71
10852;BME280;5479;52.046;6.314;2023-02-14T12:07:58;103208.00;;;19.00;48.07
10852;BME280;5479;52.046;6.314;2023-02-14T12:10:30;103208.06;;;19.45;46.58
10852;BME280;5479;52.046;6.314;2023-02-14T12:13:00;103202.22;;;20.12;45.70
10852;BME280;5479;52.046;6.314;2023-02-14T12:15:31;103195.34;;;20.51;45.13
10852;BME280;5479;52.046;6.314;2023-02-14T12:18:19;103196.47;;;20.46;44.17
10852;BME280;5479;52.046;6.314;2023-02-14T12:20:54;103185.16;;;19.83;45.11
10852;BME280;5479;52.046;6.314;2023-02-14T12:23:25;103195.69;;;17.29;50.66
10852;BME280;5479;52.046;6.314;2023-02-14T12:26:00;103192.25;;;17.27;52.33
10852;BME280;5479;52.046;6.314;2023-02-14T12:28:33;103182.63;;;17.76;51.46
10852;BME280;5479;52.046;6.314;2023-02-14T12:31:08;103177.59;;;17.17;52.27
10852;BME280;5479;52.046;6.314;2023-02-14T12:33:37;103167.72;;;17.53;52.66
10852;BME280;5479;52.046;6.314;2023-02-14T12:36:11;103167.22;;;18.14;51.53
10852;BME280;5479;52.046;6.314;2023-02-14T12:38:49;103165.69;;;18.41;50.02
10852;BME280;5479;52.046;6.314;2023-02-14T12:41:29;103161.00;;;18.29;50.50
10852;BME280;5479;52.046;6.314;2023-02-14T12:44:05;103168.72;;;17.50;52.24
10852;BME280;5479;52.046;6.314;2023-02-14T12:47:00;103162.44;;;16.99;52.84
10852;BME280;5479;52.046;6.314;2023-02-14T12:52:42;103165.22;;;16.21;56.65
10852;BME280;5479;52.046;6.314;2023-02-14T12:55:28;103158.31;;;14.91;61.09
10852;BME280;5479;52.046;6.314;2023-02-14T12:58:08;103146.03;;;14.87;65.09
10852;BME280;5479;52.046;6.314;2023-02-14T13:00:47;103144.94;;;14.71;69.15
10852;BME280;5479;52.046;6.314;2023-02-14T13:03:39;103134.94;;;14.30;70.02
10852;BME280;5479;52.046;6.314;2023-02-14T13:06:17;103139.94;;;13.91;76.89
10852;BME280;5479;52.046;6.314;2023-02-14T13:11:58;103132.13;;;12.82;90.14
10852;BME280;5479;52.046;6.314;2023-02-14T13:14:45;103130.41;;;12.81;94.44
10852;BME280;5479;52.046;6.314;2023-02-14T13:17:24;103127.16;;;12.71;98.68
10852;BME280;5479;52.046;6.314;2023-02-14T13:19:59;103129.25;;;12.61;98.52
10852;BME280;5479;52.046;6.314;2023-02-14T13:22:33;103120.84;;;12.75;100.00
10852;BME280;5479;52.046;6.314;2023-02-14T13:25:04;103127.50;;;12.88;100.00
10852;BME280;5479;52.046;6.314;2023-02-14T13:27:36;103119.44;;;12.91;95.08
10852;BME280;5479;52.046;6.314;2023-02-14T13:30:12;103115.00;;;12.92;97.98
10852;BME280;5479;52.046;6.314;2023-02-14T13:32:44;103112.53;;;13.13;97.58
10852;BME280;5479;52.046;6.314;2023-02-14T13:35:15;103113.25;;;13.18;96.04
10852;BME280;5479;52.046;6.314;2023-02-14T13:37:47;103112.78;;;13.32;93.33
10852;BME280;5479;52.046;6.314;2023-02-14T13:40:19;103104.81;;;13.30;92.89
10852;BME280;5479;52.046;6.314;2023-02-14T13:42:51;103101.16;;;13.35;91.41
10852;BME280;5479;52.046;6.314;2023-02-14T13:48:33;103099.09;;;13.16;93.36